Wetterdaten: aktuell Samstag, 25.05.2019 17:00
Datum Zeit Temp. A. Feuchte A. Luftdruck Regen Wind UV Solar Windben
25.05.2019 17:00 17,5 C 70 % 1012,9 hPa 0,0 l/m 0,0 km/h (0 Bft) 0,0 UV-I 417 W/m 0,0 km/h (0 Bft)
25.05.2019 16:00 16,9 C 73 % 1013,1 hPa 0,0 l/m 0,0 km/h (0 Bft) 0,0 UV-I 257 W/m 0,0 km/h (0 Bft)
25.05.2019 15:00 18,3 C 66 % 1013,0 hPa 0,0 l/m 0,0 km/h (0 Bft) 0,0 UV-I 578 W/m 0,0 km/h (0 Bft)
25.05.2019 14:00 17,6 C 71 % 1012,9 hPa 0,0 l/m 0,0 km/h (0 Bft) 0,0 UV-I 930 W/m 0,0 km/h (0 Bft)
25.05.2019 13:00 17,3 C 74 % 1012,9 hPa 0,0 l/m 0,0 km/h (0 Bft) 0,0 UV-I 818 W/m 0,0 km/h (0 Bft)
25.05.2019 12:00 17,3 C 74 % 1013,1 hPa 0,0 l/m 0,0 km/h (0 Bft) 0,0 UV-I 438 W/m 0,0 km/h (0 Bft)
25.05.2019 11:00 16,4 C 73 % 1013,0 hPa 0,0 l/m 0,0 km/h (0 Bft) 0,0 UV-I 515 W/m 0,0 km/h (0 Bft)
25.05.2019 10:00 15,2 C 75 % 1013,0 hPa 0,0 l/m 0,0 km/h (0 Bft) 0,0 UV-I 593 W/m 0,0 km/h (0 Bft)
25.05.2019 09:00 13,5 C 77 % 1012,7 hPa 0,0 l/m 0,0 km/h (0 Bft) 0,0 UV-I 430 W/m 0,0 km/h (0 Bft)
25.05.2019 08:00 12,9 C 76 % 1012,4 hPa 0,0 l/m 0,0 km/h (0 Bft) 0,0 UV-I 322 W/m 0,0 km/h (0 Bft)
25.05.2019 07:00 10,4 C 81 % 1012,2 hPa 0,0 l/m 0,0 km/h (0 Bft) 0,0 UV-I 196 W/m 0,0 km/h (0 Bft)
25.05.2019 06:00 9,6 C 82 % 1011,9 hPa 0,0 l/m 0,0 km/h (0 Bft) 0,0 UV-I 33 W/m 0,0 km/h (0 Bft)
25.05.2019 05:00 9,6 C 80 % 1011,6 hPa 0,0 l/m 0,0 km/h (0 Bft) 0,0 UV-I 0 W/m 0,0 km/h (0 Bft)
25.05.2019 04:00 11,4 C 74 % 1011,6 hPa 0,0 l/m 0,0 km/h (0 Bft) 0,0 UV-I 0 W/m 0,0 km/h (0 Bft)
25.05.2019 03:00 11,8 C 74 % 1011,8 hPa 0,0 l/m 0,0 km/h (0 Bft) 0,0 UV-I 0 W/m 0,0 km/h (0 Bft)
25.05.2019 02:00 11,8 C 75 % 1012,1 hPa 0,0 l/m 0,0 km/h (0 Bft) 0,0 UV-I 0 W/m 0,0 km/h (0 Bft)
25.05.2019 01:00 12,2 C 74 % 1012,2 hPa 0,0 l/m 0,0 km/h (0 Bft) 0,0 UV-I 0 W/m 0,0 km/h (0 Bft)
25.05.2019 00:00 12,1 C 75 % 1012,1 hPa 0,0 l/m 0,1 km/h (0 Bft) 0,0 UV-I 0 W/m 1,6 km/h (1 Bft)
24.05.2019 23:00 12,2 C 75 % 1011,8 hPa 0,0 l/m 0,1 km/h (0 Bft) 0,0 UV-I 0 W/m 1,6 km/h (1 Bft)
24.05.2019 22:00 13,6 C 68 % 1011,9 hPa 0,0 l/m 0,0 km/h (0 Bft) 0,0 UV-I 0 W/m 0,0 km/h (0 Bft)
24.05.2019 21:00 16,1 C 66 % 1011,7 hPa 0,0 l/m 0,0 km/h (0 Bft) 0,0 UV-I 5 W/m 0,0 km/h (0 Bft)
24.05.2019 20:00 17,7 C 58 % 1011,6 hPa 0,0 l/m 1,8 km/h (1 Bft) 0,0 UV-I 48 W/m 4,8 km/h (1 Bft)
24.05.2019 19:00 18,9 C 60 % 1011,6 hPa 0,0 l/m 0,8 km/h (0 Bft) 0,0 UV-I 242 W/m 6,4 km/h (2 Bft)
24.05.2019 18:00 19,3 C 50 % 1011,9 hPa 0,0 l/m 6,9 km/h (2 Bft) 0,0 UV-I 268 W/m 12,9 km/h (3 Bft)
_ Min-Zeit 05:06 18:02 19:42 - 19:12 - - 19:12
Minimum _ 9,3 C 49 % 1011,5 hPa - 0,0 km/h (0 Bft) - - 0,0 km/h (0 Bft)
_ Max-Zeit 18:00 06:42 12:14 18:00 18:44 13:58 14:26 18:00
Maximum _ 19,3 C 84 % 1013,2 hPa 0,0 l/m 8,1 km/h
NW (2 Bft)
0,3 UV-I 1016 W/m 12,9 km/h
W-NW (3 Bft)
Durchschnitt _ 14,8 C 70 % 1012,3 hPa #0,0 l/m 1,0 km/h (0 Bft) 0,3 UV-I 462 W/m 1,9 km/h (1 Bft)